Time;durP1;ratioP1;P1;durP2;ratioP2;P2;SDS_P1;SDS_P2;PMS_P1;PMS_P2;Temp;Humidity;BMP_temperature;BMP_pressure;BME280_temperature;BME280_humidity;BME280_pressure;Samples;Min_cycle;Max_cycle;Signal;HPM_P1;HPM_P2
2021/11/22 00:00:23;;;;;;;12.05;5.28;;;3.70;99.90;;;;;;5024177;28;20108;-82
2021/11/22 00:02:51;;;;;;;10.77;5.45;;;3.70;99.90;;;;;;5026156;28;20617;-82
2021/11/22 00:05:17;;;;;;;10.02;5.82;;;3.70;99.90;;;;;;5022680;28;20100;-82
2021/11/22 00:07:43;;;;;;;10.07;5.47;;;3.80;99.90;;;;;;5023207;28;23014;-82
2021/11/22 00:10:09;;;;;;;7.18;5.43;;;3.70;99.90;;;;;;5026502;28;20107;-82
2021/11/22 00:12:35;;;;;;;14.93;6.07;;;3.80;99.90;;;;;;5023341;28;20022;-82
2021/11/22 00:15:03;;;;;;;9.25;5.82;;;3.70;99.90;;;;;;5024923;28;20036;-82
2021/11/22 00:17:29;;;;;;;10.98;5.68;;;3.70;99.90;;;;;;5017322;28;20033;-82
2021/11/22 00:19:55;;;;;;;11.82;4.68;;;3.80;99.90;;;;;;5021978;28;20049;-82
2021/11/22 00:22:21;;;;;;;11.60;5.18;;;3.80;99.90;;;;;;5026014;28;20111;-82
2021/11/22 00:24:46;;;;;;;12.45;5.72;;;3.80;99.90;;;;;;5022669;28;20752;-81
2021/11/22 00:27:12;;;;;;;8.75;5.63;;;3.70;99.90;;;;;;5021392;28;20033;-81
2021/11/22 00:29:38;;;;;;;12.90;6.63;;;3.70;99.90;;;;;;5024799;28;20534;-81
2021/11/22 00:32:05;;;;;;;12.70;5.43;;;3.80;99.90;;;;;;5018899;28;20048;-82
2021/11/22 00:34:32;;;;;;;13.25;6.30;;;3.80;99.90;;;;;;5023492;28;20394;-82
2021/11/22 00:36:58;;;;;;;10.95;6.05;;;3.80;99.90;;;;;;5024461;28;20640;-82
2021/11/22 00:39:23;;;;;;;11.77;5.70;;;3.80;99.90;;;;;;5022359;28;20041;-82
2021/11/22 00:41:49;;;;;;;13.02;6.05;;;3.70;99.90;;;;;;5030950;28;20031;-81
2021/11/22 00:44:15;;;;;;;12.30;5.63;;;3.70;99.90;;;;;;5025557;28;20037;-81
2021/11/22 00:46:40;;;;;;;10.93;5.03;;;3.60;99.90;;;;;;5038255;28;20144;-81
2021/11/22 00:49:06;;;;;;;15.35;6.10;;;3.60;99.90;;;;;;5021811;28;20029;-81
2021/11/22 00:51:32;;;;;;;14.63;6.15;;;3.60;99.90;;;;;;5020315;28;20112;-81
2021/11/22 00:53:58;;;;;;;12.70;6.57;;;3.60;99.90;;;;;;5031304;28;20034;-81
2021/11/22 00:56:24;;;;;;;12.88;5.80;;;3.50;99.90;;;;;;5025789;28;20088;-81
2021/11/22 00:58:50;;;;;;;14.32;5.60;;;3.50;99.90;;;;;;5021194;28;20052;-81
2021/11/22 01:01:15;;;;;;;12.10;5.90;;;3.50;99.90;;;;;;5024432;28;20045;-81
2021/11/22 01:03:41;;;;;;;11.00;6.20;;;3.50;99.90;;;;;;5021728;28;20040;-81
2021/11/22 01:06:07;;;;;;;12.07;5.53;;;3.50;99.90;;;;;;5023942;28;20021;-81
2021/11/22 01:08:33;;;;;;;13.85;6.35;;;3.50;99.90;;;;;;5023019;28;20584;-81
2021/11/22 01:10:58;;;;;;;14.25;6.28;;;3.40;99.90;;;;;;5021185;28;20089;-82
2021/11/22 01:13:24;;;;;;;11.77;6.18;;;3.40;99.90;;;;;;5018768;28;20034;-82
2021/11/22 01:15:50;;;;;;;12.88;6.25;;;3.40;99.90;;;;;;5022231;28;20083;-82
2021/11/22 01:18:15;;;;;;;15.73;6.82;;;3.40;99.90;;;;;;5019778;28;20057;-81
2021/11/22 01:20:41;;;;;;;17.85;6.82;;;3.40;99.90;;;;;;5019718;28;20108;-81
2021/11/22 01:23:10;;;;;;;11.00;6.00;;;3.40;99.90;;;;;;5019341;28;20698;-81
2021/11/22 01:25:38;;;;;;;14.02;6.88;;;3.40;99.90;;;;;;5025621;28;20033;-81
2021/11/22 01:28:04;;;;;;;15.77;8.63;;;3.40;99.90;;;;;;5022327;28;20041;-81
2021/11/22 01:30:30;;;;;;;14.63;6.93;;;3.30;99.90;;;;;;5019631;28;20386;-82
2021/11/22 01:32:56;;;;;;;15.23;7.57;;;3.30;99.90;;;;;;5021156;28;20108;-81
2021/11/22 01:35:22;;;;;;;14.90;6.88;;;3.40;99.90;;;;;;5019923;28;20116;-81
2021/11/22 01:37:49;;;;;;;14.82;7.38;;;3.30;99.90;;;;;;5024895;28;20026;-81
2021/11/22 01:40:17;;;;;;;15.52;7.35;;;3.30;99.90;;;;;;5021198;28;20030;-81
2021/11/22 01:42:43;;;;;;;;;;;3.30;99.90;;;;;;5026175;28;20029;-81
2021/11/22 01:45:12;;;;;;;17.70;7.72;;;3.30;99.90;;;;;;5021574;28;20419;-81
2021/11/22 01:47:39;;;;;;;17.88;8.05;;;3.20;99.90;;;;;;5020758;28;20486;-81
2021/11/22 01:50:07;;;;;;;18.48;8.88;;;3.20;99.90;;;;;;5021549;28;20032;-81
2021/11/22 01:52:33;;;;;;;15.73;8.57;;;3.20;99.90;;;;;;5021899;28;20411;-81
2021/11/22 01:54:59;;;;;;;21.33;9.82;;;3.20;99.90;;;;;;5020276;28;20033;-81
2021/11/22 01:57:24;;;;;;;18.33;8.55;;;3.20;99.90;;;;;;5018000;28;20146;-81
2021/11/22 01:59:51;;;;;;;17.67;8.25;;;3.20;99.90;;;;;;5020332;28;20026;-81
2021/11/22 02:02:17;;;;;;;18.08;8.02;;;3.20;99.90;;;;;;5018537;28;20045;-81
2021/11/22 02:04:43;;;;;;;16.70;7.85;;;3.20;99.90;;;;;;5020679;28;20561;-81
2021/11/22 02:07:08;;;;;;;17.42;8.82;;;3.20;99.90;;;;;;5020593;28;20025;-81
2021/11/22 02:09:34;;;;;;;17.35;7.15;;;3.20;99.90;;;;;;5019776;28;20030;-81
2021/11/22 02:12:00;;;;;;;17.95;7.82;;;3.20;99.90;;;;;;5019642;28;20029;-81
2021/11/22 02:14:26;;;;;;;15.45;7.53;;;3.20;99.90;;;;;;5021438;28;20124;-81
2021/11/22 02:16:52;;;;;;;15.93;7.82;;;3.20;99.90;;;;;;5017360;28;20029;-81
2021/11/22 02:19:18;;;;;;;16.05;7.85;;;3.20;99.90;;;;;;5022040;28;20057;-81
2021/11/22 02:21:43;;;;;;;18.35;8.15;;;3.30;99.90;;;;;;5019769;28;20073;-81
2021/11/22 02:24:10;;;;;;;16.98;7.80;;;3.30;99.90;;;;;;5016863;28;20059;-81
2021/11/22 02:26:36;;;;;;;12.65;6.80;;;3.30;99.90;;;;;;5035279;28;20532;-81
2021/11/22 02:29:06;;;;;;;15.85;7.10;;;3.30;99.90;;;;;;5018702;28;20053;-81
2021/11/22 02:31:32;;;;;;;12.73;6.60;;;3.30;99.90;;;;;;5017035;28;20068;-82
2021/11/22 02:33:58;;;;;;;15.50;7.45;;;3.40;99.90;;;;;;5023507;28;20033;-82
2021/11/22 02:36:24;;;;;;;18.85;7.30;;;3.40;99.90;;;;;;5017157;28;20478;-81
2021/11/22 02:38:51;;;;;;;14.90;6.22;;;3.50;99.90;;;;;;5033770;28;20029;-81
2021/11/22 02:41:17;;;;;;;16.48;7.68;;;3.50;99.90;;;;;;5022356;28;20021;-81
2021/11/22 02:43:45;;;;;;;18.15;7.50;;;3.50;99.90;;;;;;5015230;28;20321;-81
2021/11/22 02:46:12;;;;;;;17.70;7.03;;;3.50;99.90;;;;;;5023530;28;20019;-81
2021/11/22 02:48:37;;;;;;;13.38;6.93;;;3.50;99.90;;;;;;5016282;28;20613;-81
2021/11/22 02:51:05;;;;;;;18.30;7.80;;;3.50;99.90;;;;;;5031945;28;20034;-81
2021/11/22 02:53:32;;;;;;;18.30;8.00;;;3.50;99.90;;;;;;5018877;28;20025;-81
2021/11/22 02:56:03;;;;;;;14.40;6.88;;;3.50;99.90;;;;;;5018357;28;20056;-81
2021/11/22 02:58:30;;;;;;;17.33;7.07;;;3.50;99.90;;;;;;5018987;28;20028;-82
2021/11/22 03:00:56;;;;;;;16.95;7.65;;;3.40;99.90;;;;;;5025283;28;20043;-81
2021/11/22 03:03:33;;;;;;;17.75;7.53;;;3.40;99.90;;;;;;5037979;28;20033;-81
2021/11/22 03:06:13;;;;;;;23.52;8.45;;;3.40;99.90;;;;;;5022880;28;20034;-81
2021/11/22 03:08:42;;;;;;;17.65;8.63;;;3.40;99.90;;;;;;5024687;28;20110;-80
2021/11/22 03:11:08;;;;;;;19.15;8.85;;;3.40;99.90;;;;;;5038496;28;20087;-81
2021/11/22 03:13:35;;;;;;;15.90;7.85;;;3.40;99.90;;;;;;5019409;28;20452;-81
2021/11/22 03:16:01;;;;;;;15.40;7.88;;;3.40;99.90;;;;;;5026797;28;20029;-81
2021/11/22 03:18:27;;;;;;;15.70;7.38;;;3.40;99.90;;;;;;5018534;28;20033;-81
2021/11/22 03:20:53;;;;;;;20.85;7.95;;;3.40;99.90;;;;;;5021044;28;20148;-81
2021/11/22 03:23:19;;;;;;;13.73;7.10;;;3.40;99.90;;;;;;5029804;28;20049;-81
2021/11/22 03:25:45;;;;;;;17.77;7.30;;;3.50;99.90;;;;;;5021412;28;20030;-81
2021/11/22 03:28:12;;;;;;;15.90;7.97;;;3.50;99.90;;;;;;5024822;28;20563;-81
2021/11/22 03:30:39;;;;;;;20.30;8.90;;;3.50;99.90;;;;;;5017810;28;20417;-81
2021/11/22 03:33:05;;;;;;;15.73;8.20;;;3.50;99.90;;;;;;5026144;28;20030;-82
2021/11/22 03:35:31;;;;;;;13.60;7.13;;;3.50;99.90;;;;;;5035788;28;20025;-82
2021/11/22 03:37:57;;;;;;;17.10;7.25;;;3.60;99.90;;;;;;5023151;28;20505;-82
2021/11/22 03:40:23;;;;;;;14.38;7.68;;;3.50;99.90;;;;;;5035606;28;20447;-82
2021/11/22 03:43:01;;;;;;;17.52;8.20;;;3.60;99.90;;;;;;5022747;28;20017;-81
2021/11/22 03:45:27;;;;;;;15.85;7.10;;;3.50;99.90;;;;;;5023688;28;20022;-81
2021/11/22 03:47:53;;;;;;;17.95;7.60;;;3.50;99.90;;;;;;5035339;28;20512;-81
2021/11/22 03:50:19;;;;;;;18.27;7.80;;;3.50;99.90;;;;;;5025677;28;20060;-81
2021/11/22 03:52:44;;;;;;;21.83;9.18;;;3.50;99.90;;;;;;5042219;28;20128;-81
2021/11/22 03:55:10;;;;;;;16.85;8.50;;;3.40;99.90;;;;;;5044027;28;20116;-81
2021/11/22 03:57:36;;;;;;;22.45;9.05;;;3.40;99.90;;;;;;5023269;28;20075;-81
2021/11/22 04:00:02;;;;;;;22.38;9.68;;;3.40;99.90;;;;;;5021730;28;22142;-81
2021/11/22 04:02:28;;;;;;;21.23;9.13;;;3.40;99.90;;;;;;5018676;28;20124;-81
2021/11/22 04:04:53;;;;;;;26.05;10.43;;;3.40;99.90;;;;;;5020489;28;20140;-81
2021/11/22 04:07:19;;;;;;;19.95;8.63;;;3.40;99.90;;;;;;5025803;28;20624;-81
2021/11/22 04:09:45;;;;;;;21.80;8.45;;;3.30;99.90;;;;;;5033892;28;20040;-81
2021/11/22 04:12:11;;;;;;;20.45;9.57;;;3.30;99.90;;;;;;5037864;28;20021;-81
2021/11/22 04:14:36;;;;;;;17.73;8.25;;;3.30;99.90;;;;;;5019061;28;20072;-81
2021/11/22 04:17:02;;;;;;;21.48;8.57;;;3.30;99.90;;;;;;5035462;28;20018;-81
2021/11/22 04:19:28;;;;;;;18.92;9.00;;;3.40;99.90;;;;;;5018231;28;20044;-81
2021/11/22 04:21:53;;;;;;;22.73;10.02;;;3.40;99.90;;;;;;5020898;28;20049;-81
2021/11/22 04:24:19;;;;;;;23.30;9.73;;;3.40;99.90;;;;;;5021310;28;20037;-81
2021/11/22 04:26:45;;;;;;;22.52;10.18;;;3.40;99.90;;;;;;5020722;28;20033;-81
2021/11/22 04:29:11;;;;;;;21.52;9.07;;;3.40;99.90;;;;;;5023642;28;20126;-81
2021/11/22 04:31:37;;;;;;;21.80;9.23;;;3.50;99.90;;;;;;5022646;28;20037;-81
2021/11/22 04:34:02;;;;;;;24.10;9.60;;;3.40;99.90;;;;;;5022325;28;20040;-81
2021/11/22 04:36:28;;;;;;;13.73;7.10;;;3.50;99.90;;;;;;5022517;28;20060;-81
2021/11/22 04:38:54;;;;;;;24.27;9.38;;;3.50;99.90;;;;;;5039290;28;20026;-81
2021/11/22 04:41:21;;;;;;;19.98;8.40;;;3.50;99.90;;;;;;5035718;28;20608;-82
2021/11/22 04:43:46;;;;;;;20.38;9.18;;;3.40;99.90;;;;;;5036728;28;20029;-82
2021/11/22 04:46:12;;;;;;;25.88;9.05;;;3.50;99.90;;;;;;5021603;28;20032;-82
2021/11/22 04:48:38;;;;;;;27.00;9.77;;;3.50;99.90;;;;;;5020677;28;20041;-82
2021/11/22 04:51:03;;;;;;;16.00;7.82;;;3.40;99.90;;;;;;5020019;28;20033;-82
2021/11/22 04:53:29;;;;;;;18.85;8.02;;;3.40;99.90;;;;;;5021602;28;20029;-82
2021/11/22 04:55:55;;;;;;;22.85;9.63;;;3.50;99.90;;;;;;5020776;28;20558;-82
2021/11/22 04:58:21;;;;;;;22.60;9.82;;;3.50;99.90;;;;;;5035162;28;20398;-82
2021/11/22 05:00:46;;;;;;;17.23;8.43;;;3.50;99.90;;;;;;5018015;28;20022;-81
2021/11/22 05:03:12;;;;;;;18.33;8.05;;;3.50;99.90;;;;;;5024635;28;20108;-81
2021/11/22 05:05:38;;;;;;;20.75;9.43;;;3.50;99.90;;;;;;5023591;28;20607;-81
2021/11/22 05:08:08;;;;;;;21.90;10.27;;;3.50;99.90;;;;;;5020450;28;20029;-81
2021/11/22 05:10:44;;;;;;;16.80;8.30;;;3.50;99.90;;;;;;5021093;28;20506;-81
2021/11/22 05:13:16;;;;;;;18.83;9.07;;;3.50;99.90;;;;;;5033184;28;20068;-82
2021/11/22 05:15:42;;;;;;;18.33;8.43;;;3.50;99.90;;;;;;5020545;28;20031;-82
2021/11/22 05:18:10;;;;;;;20.95;8.60;;;3.50;99.90;;;;;;5039256;28;20439;-82
2021/11/22 05:20:38;;;;;;;20.27;8.50;;;3.50;99.90;;;;;;5018442;28;20029;-82
2021/11/22 05:23:04;;;;;;;23.98;9.05;;;3.60;99.90;;;;;;5022532;28;20045;-82
2021/11/22 05:25:31;;;;;;;16.67;7.93;;;3.60;99.90;;;;;;5019204;28;20033;-82
2021/11/22 05:27:57;;;;;;;21.35;10.00;;;3.50;99.90;;;;;;5023576;28;20075;-82
2021/11/22 05:30:26;;;;;;;24.05;8.90;;;3.50;99.90;;;;;;5019337;28;20037;-82
2021/11/22 05:32:53;;;;;;;25.25;9.65;;;3.50;99.90;;;;;;5020936;28;20402;-81
2021/11/22 05:35:18;;;;;;;21.73;9.55;;;3.50;99.90;;;;;;5018036;28;20033;-81
2021/11/22 05:37:44;;;;;;;27.23;10.57;;;3.50;99.90;;;;;;5017411;28;20037;-81
2021/11/22 05:40:11;;;;;;;26.60;9.32;;;3.50;99.90;;;;;;5015606;28;20059;-81
2021/11/22 05:42:37;;;;;;;19.67;9.35;;;3.50;99.90;;;;;;5018614;28;21057;-81
2021/11/22 05:45:04;;;;;;;26.52;11.02;;;3.50;99.90;;;;;;5021411;28;20021;-81
2021/11/22 05:47:31;;;;;;;21.75;9.60;;;3.50;99.90;;;;;;5018491;28;20128;-81
2021/11/22 05:50:03;;;;;;;22.00;8.55;;;3.40;99.90;;;;;;5038085;28;20029;-81
2021/11/22 05:52:29;;;;;;;25.20;11.00;;;3.50;99.90;;;;;;5032729;28;20026;-81
2021/11/22 05:54:56;;;;;;;22.02;9.00;;;3.50;99.90;;;;;;5038231;28;20092;-81
2021/11/22 05:57:23;;;;;;;24.60;8.70;;;3.40;99.90;;;;;;5020824;28;20044;-81
2021/11/22 05:59:49;;;;;;;23.75;11.10;;;3.40;99.90;;;;;;5019461;28;20805;-81
2021/11/22 06:02:15;;;;;;;27.67;9.93;;;3.40;99.90;;;;;;5036498;28;20414;-81
2021/11/22 06:04:41;;;;;;;23.30;10.80;;;3.50;99.90;;;;;;5034039;28;20049;-81
2021/11/22 06:07:08;;;;;;;22.77;9.05;;;3.50;99.90;;;;;;5019925;28;20022;-81
2021/11/22 06:09:34;;;;;;;27.75;9.88;;;3.50;99.90;;;;;;5019839;28;20116;-81
2021/11/22 06:12:00;;;;;;;20.95;10.25;;;3.40;99.90;;;;;;5022390;28;20025;-81
2021/11/22 06:14:26;;;;;;;21.13;10.02;;;3.40;99.90;;;;;;5016916;28;20026;-81
2021/11/22 06:16:52;;;;;;;24.23;9.95;;;3.40;99.90;;;;;;5020254;28;20029;-81
2021/11/22 06:19:17;;;;;;;27.15;11.15;;;3.40;99.90;;;;;;5014494;28;20124;-81
2021/11/22 06:21:43;;;;;;;21.98;9.43;;;3.40;99.90;;;;;;5015988;28;20094;-81
2021/11/22 06:24:09;;;;;;;18.52;7.97;;;3.40;99.90;;;;;;5021629;28;20025;-81
2021/11/22 06:26:35;;;;;;;23.08;8.88;;;3.40;99.90;;;;;;5022697;28;20032;-81
2021/11/22 06:29:01;;;;;;;25.55;9.43;;;3.50;99.90;;;;;;5020985;28;20038;-82
2021/11/22 06:31:27;;;;;;;20.52;8.48;;;3.50;99.90;;;;;;5021820;28;20041;-82
2021/11/22 06:33:53;;;;;;;18.85;8.55;;;3.50;99.90;;;;;;5018094;28;21893;-81
2021/11/22 06:36:19;;;;;;;17.13;8.68;;;3.50;99.90;;;;;;5025973;28;20113;-81
2021/11/22 06:38:44;;;;;;;18.27;8.88;;;3.50;99.90;;;;;;5023311;28;20505;-82
2021/11/22 06:41:10;;;;;;;17.73;8.07;;;3.50;99.90;;;;;;5023720;28;20029;-82
2021/11/22 06:43:36;;;;;;;20.70;8.13;;;3.50;99.90;;;;;;5026503;28;20482;-82
2021/11/22 06:46:01;;;;;;;23.27;9.77;;;3.50;99.90;;;;;;5027351;28;20048;-82
2021/11/22 06:48:27;;;;;;;18.80;7.97;;;3.60;99.90;;;;;;5020986;28;20088;-82
2021/11/22 06:50:53;;;;;;;22.40;9.10;;;3.50;99.90;;;;;;5036181;28;20072;-82
2021/11/22 06:53:21;;;;;;;17.33;8.35;;;3.60;99.90;;;;;;5023233;28;20481;-82
2021/11/22 06:55:51;;;;;;;20.02;8.60;;;3.60;99.90;;;;;;5041737;28;20022;-82
2021/11/22 06:58:17;;;;;;;20.52;8.45;;;3.50;99.90;;;;;;5026453;28;20044;-82
2021/11/22 07:00:44;;;;;;;14.90;7.47;;;3.60;99.90;;;;;;5019115;28;20038;-82
2021/11/22 07:03:09;;;;;;;17.50;8.45;;;3.60;99.90;;;;;;5019861;28;20029;-82
2021/11/22 07:05:35;;;;;;;16.40;7.30;;;3.60;99.90;;;;;;5033709;28;20111;-81
2021/11/22 07:08:04;;;;;;;21.50;8.52;;;3.60;99.90;;;;;;5025565;28;20405;-82
2021/11/22 07:10:30;;;;;;;15.75;8.10;;;3.60;99.90;;;;;;5026085;28;20021;-81
2021/11/22 07:12:56;;;;;;;19.85;8.20;;;3.60;99.90;;;;;;5017975;28;20073;-82
2021/11/22 07:15:22;;;;;;;20.90;9.73;;;3.70;99.90;;;;;;5023213;28;20030;-82
2021/11/22 07:17:49;;;;;;;24.65;9.48;;;3.70;99.90;;;;;;5020823;28;20084;-82
2021/11/22 07:20:15;;;;;;;22.30;8.50;;;3.60;99.90;;;;;;5027400;28;20108;-82
2021/11/22 07:22:41;;;;;;;18.48;7.95;;;3.70;99.90;;;;;;5026460;28;20029;-82
2021/11/22 07:25:07;;;;;;;18.83;8.57;;;3.70;99.90;;;;;;5023686;28;20075;-82
2021/11/22 07:27:33;;;;;;;22.02;8.32;;;3.70;99.90;;;;;;5028345;28;20421;-82
2021/11/22 07:29:59;;;;;;;20.27;8.23;;;3.70;99.90;;;;;;5023802;28;20107;-82
2021/11/22 07:32:26;;;;;;;21.85;9.55;;;3.70;99.90;;;;;;5018497;28;20037;-81
2021/11/22 07:34:53;;;;;;;17.50;9.38;;;3.70;99.90;;;;;;5020951;28;20372;-82
2021/11/22 07:37:19;;;;;;;22.58;8.77;;;3.70;99.90;;;;;;5021716;28;20025;-81
2021/11/22 07:39:45;;;;;;;21.13;8.38;;;3.70;99.90;;;;;;5023379;28;20037;-82
2021/11/22 07:42:11;;;;;;;20.88;9.98;;;3.70;99.90;;;;;;5021627;28;20022;-82
2021/11/22 07:44:37;;;;;;;16.70;8.25;;;3.70;99.90;;;;;;5019347;28;20034;-82
2021/11/22 07:47:04;;;;;;;19.45;8.27;;;3.70;99.90;;;;;;5024401;28;20048;-82
2021/11/22 07:49:31;;;;;;;19.40;8.80;;;3.70;99.90;;;;;;5021534;28;20021;-82
2021/11/22 07:51:56;;;;;;;17.85;8.00;;;3.70;99.90;;;;;;5020272;28;20674;-82
2021/11/22 07:54:22;;;;;;;15.70;6.40;;;3.70;99.90;;;;;;5040333;28;20490;-82
2021/11/22 07:56:48;;;;;;;20.73;7.68;;;3.80;99.90;;;;;;5038722;28;20128;-82
2021/11/22 07:59:14;;;;;;;19.73;9.18;;;3.70;99.90;;;;;;5037440;28;20112;-82
2021/11/22 08:01:40;;;;;;;18.50;8.35;;;3.80;99.90;;;;;;5022127;28;20160;-81
2021/11/22 08:04:12;;;;;;;15.55;6.90;;;3.80;99.90;;;;;;5020115;28;20046;-81
2021/11/22 08:06:45;;;;;;;16.40;8.30;;;3.80;99.90;;;;;;5022193;28;20540;-81
2021/11/22 08:09:23;;;;;;;17.45;6.90;;;3.80;99.90;;;;;;5020369;28;20723;-82
2021/11/22 08:14:33;;;;;;;12.40;6.90;;;3.80;99.90;;;;;;5022477;28;20575;-82
2021/11/22 08:16:59;;;;;;;14.02;6.60;;;3.80;99.90;;;;;;5021684;28;20021;-82
2021/11/22 08:19:24;;;;;;;15.25;6.63;;;3.80;99.90;;;;;;5022039;28;20482;-82
2021/11/22 08:21:50;;;;;;;12.82;5.65;;;3.80;99.90;;;;;;5015817;28;20041;-82
2021/11/22 08:24:16;;;;;;;13.68;6.45;;;3.90;99.90;;;;;;5038275;28;20026;-82
2021/11/22 08:26:42;;;;;;;13.05;5.90;;;3.90;99.90;;;;;;5037073;28;20425;-81
2021/11/22 08:29:08;;;;;;;16.42;5.97;;;4.00;99.90;;;;;;5021840;28;20036;-82
2021/11/22 08:31:33;;;;;;;12.70;5.40;;;3.90;99.90;;;;;;5015253;28;20524;-81
2021/11/22 08:33:59;;;;;;;12.45;6.07;;;3.90;99.90;;;;;;5030438;28;20032;-81
2021/11/22 08:36:25;;;;;;;17.27;7.00;;;4.00;99.90;;;;;;5039272;28;20035;-81
2021/11/22 08:38:52;;;;;;;15.82;5.75;;;4.00;99.90;;;;;;5034243;28;20399;-82
2021/11/22 08:41:18;;;;;;;15.38;5.38;;;4.00;99.90;;;;;;5020258;28;20578;-82
2021/11/22 08:43:44;;;;;;;13.88;5.53;;;4.00;99.90;;;;;;5020710;28;20100;-81
2021/11/22 08:46:10;;;;;;;12.52;6.07;;;4.00;99.90;;;;;;5017854;28;20029;-81
2021/11/22 08:48:36;;;;;;;13.27;6.18;;;4.10;99.90;;;;;;5019615;28;20084;-81
2021/11/22 08:51:04;;;;;;;10.85;5.80;;;4.00;99.90;;;;;;5018181;28;20552;-80
2021/11/22 08:53:31;;;;;;;15.10;5.93;;;4.10;99.90;;;;;;5026586;28;20376;-80
2021/11/22 08:55:57;;;;;;;14.25;5.28;;;4.10;99.90;;;;;;5020271;28;20041;-80
2021/11/22 08:58:23;;;;;;;11.23;5.40;;;4.10;99.90;;;;;;5035742;28;20481;-81
2021/11/22 09:00:50;;;;;;;11.50;6.30;;;4.20;99.90;;;;;;5012628;28;20053;-80
2021/11/22 09:03:16;;;;;;;13.25;5.93;;;4.20;99.90;;;;;;5020084;28;20110;-80
2021/11/22 09:05:42;;;;;;;14.32;5.45;;;4.20;99.90;;;;;;5026023;28;20092;-81
2021/11/22 09:08:08;;;;;;;12.02;5.50;;;4.30;99.90;;;;;;5038026;28;20050;-81
2021/11/22 09:10:34;;;;;;;13.00;6.63;;;4.20;99.90;;;;;;5020626;28;20029;-80
2021/11/22 09:13:00;;;;;;;18.02;5.85;;;4.30;99.90;;;;;;5021376;28;20033;-80
2021/11/22 09:15:26;;;;;;;14.30;5.63;;;4.30;99.90;;;;;;5020775;28;20051;-81
2021/11/22 09:17:52;;;;;;;12.98;5.38;;;4.30;99.90;;;;;;5024111;28;20026;-81
2021/11/22 09:20:18;;;;;;;10.50;5.57;;;4.40;99.90;;;;;;5033284;28;20036;-81
2021/11/22 09:22:44;;;;;;;11.48;5.00;;;4.40;99.90;;;;;;5026386;28;20056;-81
2021/11/22 09:25:10;;;;;;;10.95;5.57;;;4.40;99.90;;;;;;5020903;28;20021;-81
2021/11/22 09:27:36;;;;;;;11.60;5.93;;;4.40;99.90;;;;;;5018973;28;20040;-81
2021/11/22 09:30:04;;;;;;;9.57;5.18;;;4.40;99.90;;;;;;5018247;28;20029;-80
2021/11/22 09:32:30;;;;;;;15.43;6.78;;;4.40;99.90;;;;;;5019218;28;20034;-80
2021/11/22 09:34:56;;;;;;;12.40;5.05;;;4.50;99.90;;;;;;5021332;28;20041;-80
2021/11/22 09:37:21;;;;;;;11.48;4.93;;;4.50;99.90;;;;;;5022435;28;20506;-80
2021/11/22 09:39:47;;;;;;;13.25;6.07;;;4.50;99.90;;;;;;5021139;28;20033;-80
2021/11/22 09:42:14;;;;;;;11.77;5.40;;;4.40;99.90;;;;;;5023077;28;20390;-80
2021/11/22 09:44:39;;;;;;;12.77;5.85;;;4.50;99.90;;;;;;5035327;28;20033;-81
2021/11/22 09:47:05;;;;;;;11.52;5.00;;;4.50;99.90;;;;;;5020843;28;20036;-81
2021/11/22 09:49:32;;;;;;;14.70;6.07;;;4.50;99.90;;;;;;5037296;28;20418;-81
2021/11/22 09:51:57;;;;;;;11.25;5.00;;;4.50;99.90;;;;;;5018029;28;20049;-81
2021/11/22 09:54:23;;;;;;;12.00;6.45;;;4.50;99.90;;;;;;5036162;28;20064;-80
2021/11/22 09:56:50;;;;;;;11.30;5.65;;;4.50;99.90;;;;;;5017655;28;20463;-77
2021/11/22 09:59:17;;;;;;;12.70;5.97;;;4.60;99.90;;;;;;5019524;28;20091;-81
2021/11/22 10:01:43;;;;;;;11.77;5.43;;;4.60;99.90;;;;;;5019521;28;20124;-80
2021/11/22 10:04:14;;;;;;;11.38;5.32;;;4.60;99.90;;;;;;5018803;28;20688;-81
2021/11/22 10:07:08;;;;;;;9.80;4.75;;;4.70;99.90;;;;;;5021451;28;20044;-81
2021/11/22 10:09:34;;;;;;;10.35;4.65;;;4.70;99.90;;;;;;5021628;28;20045;-81
2021/11/22 10:12:01;;;;;;;13.85;6.55;;;4.70;99.90;;;;;;5025094;28;20036;-80
2021/11/22 10:14:28;;;;;;;16.50;5.70;;;4.70;99.90;;;;;;5024015;28;20042;-81
2021/11/22 10:16:54;;;;;;;12.43;6.03;;;4.70;99.90;;;;;;5024588;28;20033;-80
2021/11/22 10:19:21;;;;;;;16.73;6.45;;;4.70;99.90;;;;;;5028574;28;20043;-80
2021/11/22 10:21:48;;;;;;;13.23;6.43;;;4.80;99.90;;;;;;5022557;28;21446;-80
2021/11/22 10:24:14;;;;;;;10.82;5.72;;;4.80;99.90;;;;;;5027007;28;20035;-81
2021/11/22 10:26:42;;;;;;;14.50;6.28;;;4.80;99.90;;;;;;5034518;28;20029;-80
2021/11/22 10:29:10;;;;;;;14.73;6.38;;;4.80;99.90;;;;;;5038758;28;20038;-80
2021/11/22 10:31:37;;;;;;;11.68;6.32;;;4.80;99.90;;;;;;5024244;28;20026;-80
2021/11/22 10:34:03;;;;;;;24.63;8.48;;;4.80;99.90;;;;;;5020499;28;20022;-81
2021/11/22 10:36:36;;;;;;;23.05;9.57;;;4.90;99.90;;;;;;5018848;28;20116;-80
2021/11/22 10:39:03;;;;;;;13.13;5.78;;;4.90;99.90;;;;;;5034709;28;20624;-81
2021/11/22 10:41:39;;;;;;;15.60;6.47;;;4.90;99.90;;;;;;5022302;28;20056;-82
2021/11/22 10:44:11;;;;;;;12.65;7.07;;;4.80;99.90;;;;;;5022731;28;20029;-81
2021/11/22 10:46:46;;;;;;;13.98;6.10;;;4.90;99.90;;;;;;5020290;28;20117;-81
2021/11/22 10:49:27;;;;;;;10.15;5.30;;;4.90;99.90;;;;;;5017669;28;20033;-81
2021/11/22 10:52:06;;;;;;;11.10;5.85;;;4.90;99.90;;;;;;5023460;28;20029;-82
2021/11/22 10:54:35;;;;;;;13.02;6.72;;;5.00;99.90;;;;;;5022213;28;20033;-82
2021/11/22 10:57:12;;;;;;;12.65;6.15;;;5.00;99.90;;;;;;5022368;28;20072;-81
2021/11/22 10:59:37;;;;;;;15.60;5.57;;;5.00;99.90;;;;;;5024940;28;20018;-82
2021/11/22 11:02:03;;;;;;;11.95;5.75;;;5.00;99.90;;;;;;5020802;28;20422;-81
2021/11/22 11:04:37;;;;;;;11.13;5.47;;;5.00;99.90;;;;;;5023116;28;20045;-81
2021/11/22 11:07:08;;;;;;;11.25;5.93;;;5.00;99.90;;;;;;5021232;28;20041;-82
2021/11/22 11:09:37;;;;;;;9.73;5.60;;;5.00;99.90;;;;;;5021971;28;20505;-81
2021/11/22 11:12:02;;;;;;;11.00;5.40;;;5.00;99.90;;;;;;5025976;28;20026;-82
2021/11/22 11:14:29;;;;;;;10.27;5.68;;;5.00;99.90;;;;;;5039281;28;20033;-82
2021/11/22 11:17:18;;;;;;;9.98;5.15;;;5.10;99.90;;;;;;5023481;28;20032;-81
2021/11/22 11:19:46;;;;;;;7.78;4.50;;;5.10;99.90;;;;;;5018786;28;20033;-81
2021/11/22 11:22:12;;;;;;;8.35;4.53;;;5.10;99.90;;;;;;5021142;28;20026;-81
2021/11/22 11:24:38;;;;;;;9.15;4.88;;;5.10;99.90;;;;;;5020217;28;20034;-81
2021/11/22 11:27:04;;;;;;;9.13;4.07;;;5.10;99.90;;;;;;5024408;28;20033;-81
2021/11/22 11:29:30;;;;;;;8.65;4.38;;;5.10;99.90;;;;;;5027302;28;20067;-81
2021/11/22 11:31:56;;;;;;;8.27;4.30;;;5.10;99.90;;;;;;5037363;28;20120;-81
2021/11/22 11:34:31;;;;;;;6.60;4.43;;;5.20;99.90;;;;;;5025055;28;20021;-80
2021/11/22 11:37:09;;;;;;;8.50;4.78;;;5.20;99.90;;;;;;5022910;28;20494;-81
2021/11/22 11:40:02;;;;;;;9.80;4.65;;;5.20;99.90;;;;;;5020936;28;20486;-81
2021/11/22 11:42:37;;;;;;;10.68;5.40;;;5.30;99.90;;;;;;5024622;28;20497;-81
2021/11/22 11:45:28;;;;;;;7.95;4.80;;;5.30;99.90;;;;;;5030967;28;20091;-82
2021/11/22 11:48:12;;;;;;;9.00;4.78;;;5.30;99.90;;;;;;5024732;28;20568;-81
2021/11/22 11:50:43;;;;;;;5.68;3.63;;;5.40;99.90;;;;;;5020807;28;20033;-81
2021/11/22 11:53:14;;;;;;;5.97;3.72;;;5.50;99.90;;;;;;5022257;28;20631;-81
2021/11/22 11:55:42;;;;;;;6.53;4.00;;;5.40;99.90;;;;;;5020890;28;20060;-81
2021/11/22 11:58:14;;;;;;;7.10;4.57;;;5.40;99.90;;;;;;5021692;28;20142;-80
2021/11/22 12:00:59;;;;;;;7.10;3.95;;;5.40;99.90;;;;;;5020842;28;20037;-81
2021/11/22 12:03:30;;;;;;;9.93;5.15;;;5.40;99.90;;;;;;5021783;28;20029;-81
2021/11/22 12:05:58;;;;;;;6.40;4.07;;;5.40;99.90;;;;;;5037518;28;20116;-81
2021/11/22 12:08:28;;;;;;;7.00;3.65;;;5.40;99.90;;;;;;5021180;28;20029;-80
2021/11/22 12:10:59;;;;;;;9.95;4.40;;;5.40;99.90;;;;;;5021270;28;20041;-81
2021/11/22 12:13:46;;;;;;;8.10;4.97;;;5.40;99.90;;;;;;5034953;28;20036;-80
2021/11/22 12:16:44;;;;;;;9.10;5.07;;;5.40;99.90;;;;;;5024971;28;20120;-80
2021/11/22 12:19:29;;;;;;;;;;;5.40;99.90;;;;;;5022992;28;20406;-80
2021/11/22 12:22:14;;;;;;;8.13;4.15;;;5.40;99.90;;;;;;5024107;28;19920;-80
2021/11/22 12:24:42;;;;;;;7.90;4.13;;;5.40;99.90;;;;;;5023525;28;20100;-80
2021/11/22 12:27:26;;;;;;;6.03;4.20;;;5.40;99.90;;;;;;5016478;28;20029;-80
2021/11/22 12:29:56;;;;;;;6.70;4.40;;;5.40;99.90;;;;;;5018120;28;20395;-81
2021/11/22 12:32:31;;;;;;;7.72;4.93;;;5.40;99.90;;;;;;5017500;28;20057;-80
2021/11/22 12:35:05;;;;;;;7.53;4.22;;;5.40;99.90;;;;;;5020403;28;20030;-80
2021/11/22 12:37:35;;;;;;;8.95;4.80;;;5.40;99.90;;;;;;5023921;28;20053;-80
2021/11/22 12:40:17;;;;;;;8.70;5.35;;;5.40;99.90;;;;;;5020815;28;20045;-79
2021/11/22 12:42:50;;;;;;;9.55;4.53;;;5.40;99.90;;;;;;5036160;28;20044;-79
2021/11/22 12:45:18;;;;;;;9.00;4.90;;;5.40;99.90;;;;;;5018311;28;20072;-79
2021/11/22 12:47:44;;;;;;;9.40;5.82;;;5.40;99.90;;;;;;5030429;28;20041;-79
2021/11/22 12:50:16;;;;;;;7.30;4.75;;;5.30;99.90;;;;;;5038473;28;20030;-78
2021/11/22 12:53:03;;;;;;;8.80;4.70;;;5.30;99.90;;;;;;5025287;28;20103;-78